createdAt,value
2023-04-10T00:02:05.074Z,66.24
2023-04-10T00:05:28.363Z,66.19
2023-04-10T00:12:30.405Z,66.38
2023-04-10T00:23:36.297Z,65.84
2023-04-10T00:27:36.941Z,66.02
2023-04-10T00:44:38.205Z,66.31
2023-04-10T00:52:03.179Z,66.16
2023-04-10T00:55:34.136Z,66.31
2023-04-10T00:59:05.143Z,66.33
2023-04-10T01:02:36.219Z,66.13
2023-04-10T01:06:09.599Z,66.42
2023-04-10T01:09:40.943Z,66.57
2023-04-10T01:13:16.964Z,66.48
2023-04-10T01:16:50.128Z,66.41
2023-04-10T01:20:14.619Z,66.08
2023-04-10T01:23:53.996Z,66.45
2023-04-10T01:27:22.235Z,66.51
2023-04-10T01:30:52.291Z,66.42
2023-04-10T01:34:22.031Z,66.56
2023-04-10T01:37:58.252Z,66.63
2023-04-10T01:41:24.773Z,66.78
2023-04-10T01:44:48.878Z,66.79
2023-04-10T01:48:18.882Z,66.56
2023-04-10T01:52:00.744Z,66.56
2023-04-10T01:55:32.120Z,66.55
2023-04-10T01:59:12.284Z,66.64
2023-04-10T02:02:44.494Z,66.87
2023-04-10T02:06:16.808Z,66.75
2023-04-10T02:09:47.169Z,66.85
2023-04-10T02:13:21.193Z,66.82
2023-04-10T02:16:53.331Z,66.84
2023-04-10T02:20:09.982Z,66.74
2023-04-10T02:23:37.185Z,66.65
2023-04-10T02:40:59.177Z,67.23
2023-04-10T02:47:55.592Z,66.90
2023-04-10T02:51:27.308Z,67.16
2023-04-10T02:54:52.878Z,67.37
2023-04-10T02:58:29.465Z,67.21
2023-04-10T03:02:03.099Z,67.14
2023-04-10T03:05:59.706Z,67.33
2023-04-10T03:09:28.936Z,67.41
2023-04-10T03:12:59.381Z,67.39
2023-04-10T03:16:37.246Z,67.34
2023-04-10T03:30:26.640Z,67.27
2023-04-10T03:37:12.485Z,67.68
2023-04-10T03:40:41.211Z,67.46
2023-04-10T03:44:04.226Z,67.44
2023-04-10T03:47:57.111Z,67.78
2023-04-10T03:55:21.789Z,66.59
2023-04-10T04:56:28.515Z,67.93
2023-04-10T04:59:52.409Z,68.31
2023-04-10T05:03:29.390Z,68.14
2023-04-10T05:07:39.957Z,68.23
2023-04-10T05:11:16.198Z,67.98
2023-04-10T05:14:47.306Z,68.37
2023-04-10T05:18:07.791Z,68.25
2023-04-10T05:21:29.666Z,67.65
2023-04-10T05:25:11.015Z,67.48
2023-04-10T05:28:45.981Z,68.10
2023-04-10T05:36:43.825Z,68.65
2023-04-10T05:40:49.872Z,68.32
2023-04-10T05:44:37.017Z,68.25
2023-04-10T05:48:29.005Z,67.93
2023-04-10T05:52:24.713Z,68.42
2023-04-10T05:56:03.127Z,68.36
2023-04-10T06:03:25.047Z,68.53
2023-04-10T06:11:15.020Z,68.60
2023-04-10T06:15:06.933Z,69.05
2023-04-10T06:19:00.030Z,68.93
2023-04-10T06:26:31.645Z,68.41
2023-04-10T06:30:23.425Z,67.89
2023-04-10T06:33:50.887Z,67.79
2023-04-10T06:37:20.557Z,68.47
2023-04-10T06:40:32.084Z,68.27
2023-04-10T06:43:32.420Z,68.45
2023-04-10T06:46:44.916Z,68.07
2023-04-10T06:49:43.523Z,68.15
2023-04-10T06:53:01.107Z,68.20
2023-04-10T06:56:38.029Z,68.12
2023-04-10T06:59:51.489Z,67.99
2023-04-10T07:02:22.209Z,66.67
2023-04-10T07:05:17.909Z,64.18
2023-04-10T07:08:04.837Z,62.37
2023-04-10T07:10:33.829Z,61.39
2023-04-10T07:13:05.797Z,60.83
2023-04-10T07:15:35.370Z,59.57
2023-04-10T07:29:01.312Z,56.53
2023-04-10T07:39:56.366Z,53.46
2023-04-10T07:43:31.858Z,51.28
2023-04-10T07:46:56.813Z,52.06
2023-04-10T07:50:13.156Z,50.98
2023-04-10T07:53:25.904Z,51.31
2023-04-10T07:56:03.690Z,50.36
2023-04-10T07:58:46.388Z,49.29
2023-04-10T08:01:17.063Z,48.98
2023-04-10T08:03:48.004Z,47.67
2023-04-10T08:06:18.677Z,47.42
2023-04-10T08:09:04.447Z,47.68
2023-04-10T08:12:14.216Z,47.80
2023-04-10T08:15:25.984Z,46.32
2023-04-10T08:18:07.151Z,46.50
2023-04-10T08:21:19.966Z,45.50
2023-04-10T08:24:33.205Z,46.05
2023-04-10T08:27:42.802Z,47.07
2023-04-10T08:30:28.324Z,46.08
2023-04-10T08:33:11.374Z,45.42
2023-04-10T08:35:47.676Z,45.37
2023-04-10T08:38:32.720Z,44.37
2023-04-10T08:41:33.560Z,44.85
2023-04-10T08:44:20.996Z,45.50
2023-04-10T08:47:40.053Z,43.82
2023-04-10T08:51:19.510Z,43.56
2023-04-10T08:55:15.845Z,44.11
2023-04-10T09:02:43.983Z,44.43
2023-04-10T09:06:11.719Z,43.72
2023-04-10T09:12:57.337Z,43.14
2023-04-10T09:16:43.533Z,41.32
2023-04-10T09:23:49.829Z,41.17
2023-04-10T09:27:05.068Z,41.63
2023-04-10T09:41:02.879Z,39.16
2023-04-10T09:44:34.884Z,37.81
2023-04-10T09:47:18.670Z,39.13
2023-04-10T09:50:51.723Z,38.59
2023-04-10T09:54:32.540Z,37.93
2023-04-10T09:57:21.677Z,37.78
2023-04-10T10:00:04.263Z,37.51
2023-04-10T10:03:02.260Z,37.22
2023-04-10T10:10:27.701Z,36.05
2023-04-10T10:19:52.704Z,35.92
2023-04-10T11:37:01.542Z,35.21
2023-04-10T11:39:33.141Z,35.63
2023-04-10T11:42:02.901Z,35.45
2023-04-10T11:44:35.821Z,35.73
2023-04-10T11:47:05.838Z,35.50
2023-04-10T11:49:37.933Z,35.81
2023-04-10T11:52:08.904Z,35.84
2023-04-10T11:54:48.921Z,36.14
2023-04-10T11:57:19.498Z,35.98
2023-04-10T11:59:52.154Z,35.48
2023-04-10T12:02:22.574Z,35.61
2023-04-10T12:04:58.413Z,35.46
2023-04-10T12:07:31.868Z,35.35
2023-04-10T12:10:02.481Z,35.72
2023-04-10T12:12:38.180Z,35.80
2023-04-10T12:15:30.895Z,35.84
2023-04-10T12:18:03.628Z,35.93
2023-04-10T12:20:34.627Z,36.23
2023-04-10T12:23:05.109Z,36.41
2023-04-10T12:25:36.995Z,36.31
2023-04-10T12:28:06.408Z,36.53
2023-04-10T12:30:37.839Z,36.63
2023-04-10T12:33:08.139Z,36.72
2023-04-10T12:35:45.283Z,36.79
2023-04-10T12:38:14.084Z,36.94
2023-04-10T12:40:59.701Z,36.98
2023-04-10T12:43:34.170Z,37.19
2023-04-10T12:46:03.993Z,37.46
2023-04-10T12:48:34.146Z,37.57
2023-04-10T12:51:04.202Z,37.71
2023-04-10T12:53:43.714Z,37.84
2023-04-10T12:56:13.651Z,38.03
2023-04-10T12:58:44.097Z,37.93
2023-04-10T13:01:15.076Z,38.17
2023-04-10T13:03:44.034Z,38.22
2023-04-10T13:06:14.862Z,38.23
2023-04-10T13:08:44.182Z,38.38
2023-04-10T13:11:13.392Z,38.57
2023-04-10T13:13:43.287Z,38.55
2023-04-10T13:16:14.436Z,38.62
2023-04-10T13:18:44.891Z,38.60
2023-04-10T13:21:18.863Z,38.91
2023-04-10T13:23:48.792Z,38.90
2023-04-10T13:26:17.672Z,39.01
2023-04-10T13:28:46.969Z,39.08
2023-04-10T13:31:16.980Z,39.09
2023-04-10T13:33:48.319Z,39.26
2023-04-10T13:36:17.572Z,39.43
2023-04-10T13:38:46.928Z,39.36
2023-04-10T13:41:16.105Z,39.46
2023-04-10T13:43:47.509Z,39.64
2023-04-10T13:46:17.798Z,39.64
2023-04-10T13:48:46.645Z,39.85
2023-04-10T13:51:17.430Z,39.69
2023-04-10T13:53:47.173Z,39.80
2023-04-10T13:56:18.007Z,39.85
2023-04-10T13:58:48.830Z,39.88
2023-04-10T14:01:20.439Z,39.98
2023-04-10T14:03:50.606Z,40.24
2023-04-10T14:06:21.619Z,40.20
2023-04-10T14:08:55.317Z,40.20
2023-04-10T14:11:27.660Z,40.25
2023-04-10T14:13:56.840Z,40.48
2023-04-10T14:16:29.365Z,40.51
2023-04-10T14:18:59.899Z,40.56
2023-04-10T14:21:30.939Z,40.57
2023-04-10T14:24:02.948Z,40.78
2023-04-10T14:26:33.439Z,40.81
2023-04-10T14:29:04.698Z,40.64
2023-04-10T14:31:35.787Z,40.67
2023-04-10T14:34:11.086Z,40.72
2023-04-10T14:36:43.519Z,40.87
2023-04-10T14:39:14.032Z,40.84
2023-04-10T14:41:44.842Z,40.82
2023-04-10T14:44:15.380Z,40.88
2023-04-10T14:46:44.684Z,41.07
2023-04-10T14:49:16.467Z,40.79
2023-04-10T14:52:12.282Z,41.00
2023-04-10T14:54:42.202Z,41.10
2023-04-10T14:57:14.050Z,41.11
2023-04-10T14:59:43.107Z,41.21
2023-04-10T15:02:12.517Z,41.15
2023-04-10T15:04:43.022Z,41.29
2023-04-10T15:07:16.426Z,41.33
2023-04-10T15:09:47.589Z,41.55
2023-04-10T15:12:24.072Z,41.45
2023-04-10T15:14:53.148Z,41.56
2023-04-10T15:17:23.382Z,41.63
2023-04-10T15:19:52.923Z,41.64
2023-04-10T15:22:22.145Z,41.56
2023-04-10T15:24:54.048Z,41.70
2023-04-10T15:27:26.479Z,41.76
2023-04-10T15:29:58.389Z,41.70
2023-04-10T15:32:28.649Z,41.90
2023-04-10T15:34:59.138Z,41.88
2023-04-10T15:37:30.313Z,41.95
2023-04-10T15:39:59.192Z,42.01
2023-04-10T15:42:28.523Z,42.12
2023-04-10T15:44:59.711Z,42.17
2023-04-10T15:47:29.604Z,42.24
2023-04-10T15:50:02.421Z,42.39
2023-04-10T15:52:55.444Z,42.43
2023-04-10T15:55:34.372Z,42.57
2023-04-10T15:58:28.092Z,42.46
2023-04-10T16:00:58.168Z,42.24
2023-04-10T16:03:33.601Z,42.47
2023-04-10T16:06:08.270Z,42.64
2023-04-10T16:08:41.812Z,42.64
2023-04-10T16:11:16.195Z,42.60
2023-04-10T16:52:33.102Z,43.31
2023-04-10T16:59:04.044Z,43.73
2023-04-10T17:01:35.712Z,43.74
2023-04-10T17:04:05.634Z,43.68
2023-04-10T17:06:38.673Z,43.61
2023-04-10T17:09:09.673Z,43.68
2023-04-10T17:11:41.938Z,43.78
2023-04-10T17:14:13.615Z,44.00
2023-04-10T17:16:46.112Z,44.01
2023-04-10T17:19:18.328Z,44.14
2023-04-10T17:22:27.386Z,43.88
2023-04-10T17:34:12.628Z,44.02
2023-04-10T17:37:23.339Z,44.33
2023-04-10T17:40:33.328Z,44.75
2023-04-10T17:43:08.687Z,44.57
2023-04-10T17:46:22.577Z,44.94
2023-04-10T17:50:15.741Z,44.99
2023-04-10T17:57:09.903Z,45.17
2023-04-10T18:01:18.676Z,45.16
2023-04-10T18:08:18.346Z,45.53
2023-04-10T18:11:56.819Z,45.43
2023-04-10T18:18:49.092Z,45.79
2023-04-10T18:22:16.174Z,45.85
2023-04-10T18:26:05.992Z,46.12
2023-04-10T18:29:48.833Z,46.35
2023-04-10T18:49:23.862Z,47.29
2023-04-10T19:02:31.219Z,47.57
2023-04-10T19:06:46.046Z,47.65
2023-04-10T19:10:45.186Z,47.94
2023-04-10T19:14:38.669Z,48.13
2023-04-10T19:17:47.860Z,48.16
2023-04-10T19:25:05.777Z,48.43
2023-04-10T19:28:54.485Z,48.55
2023-04-10T19:33:07.639Z,48.77
2023-04-10T19:36:33.260Z,48.69
2023-04-10T19:48:17.217Z,48.76
2023-04-10T19:52:13.878Z,49.05
2023-04-10T19:55:46.491Z,49.05
2023-04-10T19:59:41.008Z,49.32
2023-04-10T20:10:37.800Z,49.75
2023-04-10T20:14:19.028Z,49.93
2023-04-10T20:27:49.225Z,50.28
2023-04-10T20:37:22.104Z,50.58
2023-04-10T20:39:58.915Z,50.77
2023-04-10T20:42:33.554Z,50.66
2023-04-10T20:45:56.642Z,50.77
2023-04-10T20:48:38.979Z,51.04
2023-04-10T21:04:46.028Z,51.28
2023-04-10T21:07:50.594Z,51.57
2023-04-10T21:11:21.650Z,51.07
2023-04-10T21:14:45.369Z,51.36
2023-04-10T21:17:58.436Z,51.34
2023-04-10T21:21:24.554Z,51.47
2023-04-10T21:24:27.001Z,51.71
2023-04-10T21:27:46.696Z,51.57
2023-04-10T21:31:14.621Z,51.70
2023-04-10T21:34:27.388Z,51.84
2023-04-10T21:45:30.935Z,52.09
2023-04-10T21:49:06.079Z,52.20
2023-04-10T21:56:21.826Z,52.63
2023-04-10T21:59:26.838Z,52.19
2023-04-10T22:02:42.843Z,52.73
2023-04-10T22:06:05.536Z,52.60
2023-04-10T22:09:16.187Z,52.35
2023-04-10T22:12:31.201Z,52.89
2023-04-10T22:15:53.373Z,52.82
2023-04-10T22:19:22.974Z,52.87
2023-04-10T22:22:33.938Z,52.76
2023-04-10T22:25:58.233Z,53.00
2023-04-10T22:29:13.422Z,52.94
2023-04-10T22:32:20.443Z,52.89
2023-04-10T22:35:35.573Z,53.12
2023-04-10T22:39:05.204Z,53.38
2023-04-10T22:42:35.900Z,53.50
2023-04-10T22:46:06.578Z,53.63
2023-04-10T22:49:32.641Z,53.67
2023-04-10T22:52:46.981Z,53.63
2023-04-10T22:56:23.984Z,54.09
2023-04-10T23:03:29.903Z,54.04
2023-04-10T23:09:52.518Z,54.28
2023-04-10T23:23:12.501Z,54.92
2023-04-10T23:29:39.885Z,54.16
2023-04-10T23:33:16.906Z,54.34
2023-04-10T23:36:40.110Z,54.57
2023-04-10T23:40:10.428Z,54.43
2023-04-10T23:49:59.744Z,54.51
2023-04-10T23:53:35.729Z,54.87
